メインページ
METAR-TAF:

METAR-TAF

空港 :

ベレン, パラー州, ブラジル

緯度: 01-23S, 経度: 048-29W, 海抜: 16m

現時点の気象観測

当レポートは14分前の19:00(UTC)に作成
の風 4kt
気温 25°C
湿度 89%
気圧 1010 hPa
視程10km以上
高度1300ftの雲はほとんどない
高度10000ftの雲は散在している

METAR: SBBE 251900Z 35004KT 9999 FEW013 SCT100 25/23 Q1010

時間: 16:14 (19:14 UTC)

予報

当レポートは3時間14分前の16:00(UTC)に作成
予報は25日の 18時(UTC)から 26日の 18時(UTC)まで有効
西/南西の風 5kt
視程10km以上
高度1500ftの千切れ雲あり
高度2500ftの雲はほとんどない, 塔状積雲.
確率 30% :
25日の 18時(UTC)から 25日の 21時(UTC)まで一時的に
西/南西の風 15kt
視程: 5000m
高度900ftの千切れ雲あり
高度2500ftの雲はほとんどない, 積乱雲.
激しい雷雨, 雨
25日の 23時(UTC)から 日の 時(UTC)まで徐々に
南/南東の風 2kt
視程: 2601m
高度2000ftの雲は散在している
26日の 03時(UTC)から 26日の 05時(UTC)まで徐々に
北東の風 5kt
高度1300ftの雲は散在している
26日の 07時(UTC)から 26日の 09時(UTC)まで徐々に
26日の 11時(UTC)から 26日の 13時(UTC)まで徐々に
西/北西の風 5kt
高度2000ftの千切れ雲あり
26日の 15時(UTC)から 26日の 17時(UTC)まで徐々に
北/北西の風 5kt
高度2000ftの千切れ雲あり
高度2500ftの雲はほとんどない

TAF: SBBE 251600Z 2518/2618 24005KT 9999 BKN015 FEW025TCU TN24/2606Z T X29/2616Z PROB30 TEMPO 2518/2521 24015KT 5000 TSRA BKN009 FEW025CB BECMG 2523/ 2601 15002KT SCT020 BECMG 2603/2605 04005KT SCT013 BECMG 2607/2609 09003K T BECMG 2611/2613 29005KT BKN020 BECMG 2615/2617 33005KT BKN020 FEW025 TCU RMK PCQ

4,000以上の空港の気象観測と天気予報(METAR報とTAF報)

利用可能な観測所は地図上に黄色い丸と赤い丸で示す。

丸の上にカーソルを重ねると観測所名を参照できる。

次にクリックすると気象観測と天気予報を参照できる。

マップの切り替え:黒色「×」印の緑ボタンをクリックして拡大、「-」印の緑ボタンをクリックして縮小、緑色の三角印をクリックして隣りの地図に切り替え


METAR-TAF: